CheckWX is a tool to help pilots better visualize weather data.  It is not intended as a substitute for an official pre-flight weather briefing.

12:17:10 UTC

04W METAR
Field of Dreams Airport
Hinckley, Minnesota, USA
Current

21 mins ago

K04W 211156Z AUTO 00000KT 10SM CLR M02/M03 A3006 RMK AO2
Observed
Mar-21 @ 11:56 UTC
Visibility
10 SM
Flight Rules
VFR
Cloud Levels
  • Clear skies
Temperature
-2°C / 28°F
Dewpoint
-3°C / 27°F
Humidity
93%
Altimeter
30.06" Hg
Pressure
1017.92 hPa
Previous

22 mins ago

K04W 211155Z AUTO 00000KT 10SM CLR M02/M03 A3006 RMK AO2
Observed
Mar-21 @ 11:55 UTC
Visibility
10 SM
Flight Rules
VFR
Cloud Levels
  • Clear skies
Temperature
-2°C / 28°F
Dewpoint
-3°C / 27°F
Humidity
93%
Altimeter
30.06" Hg
Pressure
1017.92 hPa
Previous

42 mins ago

K04W 211135Z AUTO 24003KT 10SM CLR M01/M03 A3006 RMK AO2
Observed
Mar-21 @ 11:35 UTC
Wind
  • 240° at 3 KTS
Visibility
10 SM
Flight Rules
VFR
Cloud Levels
  • Clear skies
Temperature
-1°C / 30°F
Dewpoint
-3°C / 27°F
Humidity
86%
Altimeter
30.06" Hg
Pressure
1017.92 hPa